createdAt,value
2023-04-24T00:00:43.481Z,8.40
2023-04-24T00:02:43.590Z,8.40
2023-04-24T00:04:43.453Z,8.40
2023-04-24T00:06:43.369Z,8.40
2023-04-24T00:08:43.418Z,8.40
2023-04-24T00:10:43.379Z,8.40
2023-04-24T00:12:43.569Z,8.40
2023-04-24T00:14:43.383Z,8.30
2023-04-24T00:16:43.485Z,8.30
2023-04-24T00:18:43.436Z,8.30
2023-04-24T00:20:45.073Z,8.30
2023-04-24T00:22:43.424Z,8.30
2023-04-24T00:24:43.412Z,8.40
2023-04-24T00:26:43.480Z,8.40
2023-04-24T00:28:43.387Z,8.40
2023-04-24T00:30:43.480Z,8.40
2023-04-24T00:32:43.505Z,8.40
2023-04-24T00:34:43.515Z,8.40
2023-04-24T00:36:43.437Z,8.50
2023-04-24T00:38:43.424Z,8.50
2023-04-24T00:40:43.432Z,8.50
2023-04-24T00:42:46.252Z,8.50
2023-04-24T00:44:43.423Z,8.50
2023-04-24T00:46:43.733Z,8.50
2023-04-24T00:48:43.481Z,8.50
2023-04-24T00:50:43.470Z,8.50
2023-04-24T00:52:43.533Z,8.50
2023-04-24T00:54:43.513Z,8.50
2023-04-24T00:56:43.509Z,8.60
2023-04-24T00:58:43.540Z,8.70
2023-04-24T01:00:43.417Z,8.70
2023-04-24T01:02:43.667Z,8.70
2023-04-24T01:04:43.546Z,8.70
2023-04-24T01:06:43.498Z,8.60
2023-04-24T01:08:43.603Z,8.60
2023-04-24T01:10:43.502Z,8.60
2023-04-24T01:12:43.492Z,8.70
2023-04-24T01:14:43.477Z,8.70
2023-04-24T01:16:43.603Z,8.70
2023-04-24T01:18:43.550Z,8.70
2023-04-24T01:20:43.475Z,8.70
2023-04-24T01:22:43.494Z,8.70
2023-04-24T01:24:43.397Z,8.70
2023-04-24T01:26:43.467Z,8.70
2023-04-24T01:28:43.442Z,8.70
2023-04-24T01:30:43.531Z,8.70
2023-04-24T01:32:43.569Z,8.80
2023-04-24T01:34:43.576Z,8.80
2023-04-24T01:36:43.550Z,8.80
2023-04-24T01:38:43.432Z,8.80
2023-04-24T01:40:43.434Z,8.80
2023-04-24T01:42:43.441Z,8.80
2023-04-24T01:44:49.094Z,8.80
2023-04-24T01:46:43.521Z,8.80
2023-04-24T01:48:43.501Z,8.80
2023-04-24T01:50:43.565Z,8.80
2023-04-24T01:52:43.482Z,8.80
2023-04-24T01:54:43.536Z,8.80
2023-04-24T01:56:43.518Z,8.80
2023-04-24T01:58:43.604Z,8.80
2023-04-24T02:00:43.528Z,8.80
2023-04-24T02:02:46.493Z,8.70
2023-04-24T02:04:43.605Z,8.70
2023-04-24T02:06:43.643Z,8.70
2023-04-24T02:08:43.509Z,8.70
2023-04-24T02:10:43.486Z,8.70
2023-04-24T02:12:43.623Z,8.70
2023-04-24T02:14:43.532Z,8.70
2023-04-24T02:16:43.530Z,8.70
2023-04-24T02:18:43.468Z,8.70
2023-04-24T02:20:43.508Z,8.70
2023-04-24T02:22:43.533Z,8.70
2023-04-24T02:24:43.491Z,8.70
2023-04-24T02:26:43.535Z,8.60
2023-04-24T02:28:43.496Z,8.60
2023-04-24T02:30:43.500Z,8.60
2023-04-24T02:32:45.851Z,8.60
2023-04-24T02:34:43.521Z,8.60
2023-04-24T02:36:43.689Z,8.50
2023-04-24T02:38:43.481Z,8.50
2023-04-24T02:40:43.732Z,8.50
2023-04-24T02:42:43.718Z,8.50
2023-04-24T02:44:43.513Z,8.50
2023-04-24T02:46:46.494Z,8.50
2023-04-24T02:48:43.448Z,8.50
2023-04-24T02:50:43.490Z,8.50
2023-04-24T02:52:45.772Z,8.50
2023-04-24T02:54:43.621Z,8.60
2023-04-24T02:56:43.571Z,8.60
2023-04-24T02:58:43.481Z,8.60
2023-04-24T03:00:43.510Z,8.60
2023-04-24T03:02:44.786Z,8.60
2023-04-24T03:04:43.722Z,8.60
2023-04-24T03:06:43.497Z,8.60
2023-04-24T03:08:43.542Z,8.60
2023-04-24T03:10:43.492Z,8.50
2023-04-24T03:12:43.545Z,8.50
2023-04-24T03:14:43.508Z,8.50
2023-04-24T03:16:43.557Z,8.50
2023-04-24T03:18:43.535Z,8.50
2023-04-24T03:20:43.587Z,8.50
2023-04-24T03:22:43.853Z,8.50
2023-04-24T03:24:43.466Z,8.50
2023-04-24T03:26:43.752Z,8.50
2023-04-24T03:28:43.623Z,8.50
2023-04-24T03:30:43.460Z,8.50
2023-04-24T03:32:43.565Z,8.50
2023-04-24T03:34:43.529Z,8.50
2023-04-24T03:36:43.575Z,8.50
2023-04-24T03:38:43.547Z,8.50
2023-04-24T03:41:43.528Z,8.50
2023-04-24T03:43:43.505Z,8.50
2023-04-24T03:45:44.101Z,8.50
2023-04-24T03:47:43.622Z,8.50
2023-04-24T03:48:46.706Z,8.50
2023-04-24T03:51:43.541Z,8.50
2023-04-24T03:53:43.546Z,8.50
2023-04-24T03:55:43.501Z,8.50
2023-04-24T03:57:43.966Z,8.50
2023-04-24T03:59:43.699Z,8.50
2023-04-24T04:01:44.181Z,8.50
2023-04-24T04:03:44.196Z,8.50
2023-04-24T04:05:43.996Z,8.50
2023-04-24T04:09:43.777Z,8.50
2023-04-24T04:11:43.657Z,8.60
2023-04-24T04:13:43.636Z,8.60
2023-04-24T04:15:45.279Z,8.50
2023-04-24T04:18:58.310Z,8.50
2023-04-24T04:20:55.574Z,8.60
2023-04-24T04:22:55.493Z,8.60
2023-04-24T04:25:57.580Z,8.60
2023-04-24T04:27:55.489Z,8.60
2023-04-24T04:29:55.406Z,8.70
2023-04-24T04:31:55.643Z,8.70
2023-04-24T04:33:55.458Z,8.70
2023-04-24T04:35:55.438Z,8.70
2023-04-24T04:37:55.522Z,8.70
2023-04-24T04:39:55.490Z,8.80
2023-04-24T04:41:55.566Z,8.80
2023-04-24T04:43:55.436Z,8.70
2023-04-24T04:45:55.723Z,8.80
2023-04-24T04:47:55.524Z,8.70
2023-04-24T04:49:58.656Z,8.70
2023-04-24T04:51:55.535Z,8.80
2023-04-24T04:53:55.562Z,8.70
2023-04-24T04:55:55.499Z,8.80
2023-04-24T04:57:55.472Z,8.70
2023-04-24T04:59:55.535Z,8.70
2023-04-24T05:01:55.432Z,8.70
2023-04-24T05:03:55.835Z,8.60
2023-04-24T05:05:55.577Z,8.60
2023-04-24T05:07:55.507Z,8.60
2023-04-24T05:09:56.374Z,8.60
2023-04-24T05:11:55.928Z,8.60
2023-04-24T05:13:55.510Z,8.70
2023-04-24T05:15:55.552Z,8.70
2023-04-24T05:17:57.942Z,8.70
2023-04-24T05:19:55.486Z,8.70
2023-04-24T05:21:55.827Z,8.80
2023-04-24T05:23:55.746Z,8.80
2023-04-24T05:25:55.478Z,8.80
2023-04-24T05:27:55.531Z,8.80
2023-04-24T05:29:55.668Z,8.80
2023-04-24T05:31:55.556Z,8.80
2023-04-24T05:33:55.514Z,8.80
2023-04-24T05:35:55.613Z,8.90
2023-04-24T05:37:55.699Z,8.90
2023-04-24T05:39:55.563Z,8.80
2023-04-24T05:41:55.626Z,8.30
2023-04-24T05:43:55.557Z,8.10
2023-04-24T05:45:55.618Z,8.10
2023-04-24T05:47:55.560Z,8.10
2023-04-24T05:49:55.549Z,7.80
2023-04-24T05:51:58.480Z,7.60
2023-04-24T05:53:55.545Z,7.60
2023-04-24T05:55:55.508Z,7.60
2023-04-24T05:57:55.543Z,7.50
2023-04-24T05:59:55.501Z,7.50
2023-04-24T06:01:55.825Z,7.50
2023-04-24T06:03:55.711Z,7.60
2023-04-24T06:05:55.533Z,7.60
2023-04-24T06:07:55.526Z,7.60
2023-04-24T06:09:55.520Z,7.60
2023-04-24T06:11:55.525Z,7.60
2023-04-24T06:13:55.532Z,7.60
2023-04-24T06:15:55.603Z,7.60
2023-04-24T06:17:55.513Z,7.60
2023-04-24T06:19:55.444Z,7.70
2023-04-24T06:21:55.532Z,7.60
2023-04-24T06:23:55.499Z,7.60
2023-04-24T06:25:55.649Z,7.70
2023-04-24T06:27:55.803Z,7.70
2023-04-24T06:29:55.770Z,7.80
2023-04-24T06:31:55.552Z,7.80
2023-04-24T06:33:55.560Z,7.80
2023-04-24T06:35:55.666Z,7.80
2023-04-24T06:37:55.598Z,7.80
2023-04-24T06:39:55.537Z,7.80
2023-04-24T06:41:55.583Z,7.90
2023-04-24T06:43:55.572Z,7.90
2023-04-24T06:45:55.616Z,8.00
2023-04-24T06:47:55.548Z,7.90
2023-04-24T06:49:55.730Z,7.80
2023-04-24T06:51:55.531Z,7.80
2023-04-24T06:53:58.601Z,7.90
2023-04-24T06:55:57.205Z,8.00
2023-04-24T06:57:55.607Z,8.00
2023-04-24T06:59:55.591Z,8.00
2023-04-24T07:01:55.888Z,8.00
2023-04-24T07:03:55.972Z,8.10
2023-04-24T07:05:55.722Z,8.10
2023-04-24T07:07:55.572Z,8.10
2023-04-24T07:09:55.554Z,8.10
2023-04-24T07:11:55.705Z,8.10
2023-04-24T07:13:55.519Z,8.10
2023-04-24T07:15:55.687Z,8.10
2023-04-24T07:17:55.567Z,8.30
2023-04-24T07:19:55.520Z,8.30
2023-04-24T07:21:55.612Z,8.30
2023-04-24T07:23:55.515Z,8.30
2023-04-24T07:25:55.560Z,8.30
2023-04-24T07:27:55.578Z,8.40
2023-04-24T07:29:55.523Z,8.40
2023-04-24T07:31:55.689Z,8.50
2023-04-24T07:33:55.713Z,8.50
2023-04-24T07:35:55.572Z,8.50
2023-04-24T07:37:56.027Z,8.70
2023-04-24T07:39:55.677Z,8.70
2023-04-24T07:41:55.805Z,8.80
2023-04-24T07:43:55.618Z,8.60
2023-04-24T07:45:55.678Z,8.70
2023-04-24T07:47:55.659Z,8.70
2023-04-24T07:49:55.581Z,8.70
2023-04-24T07:51:55.621Z,9.10
2023-04-24T07:53:55.793Z,9.20
2023-04-24T07:55:58.514Z,9.20
2023-04-24T07:57:55.601Z,9.20
2023-04-24T07:59:55.594Z,9.50
2023-04-24T08:01:55.792Z,9.50
2023-04-24T08:03:57.341Z,9.80
2023-04-24T08:05:55.688Z,9.80
2023-04-24T08:07:55.626Z,9.80
2023-04-24T08:09:57.554Z,10.00
2023-04-24T08:12:55.615Z,10.00
2023-04-24T08:14:55.659Z,10.20
2023-04-24T08:16:55.570Z,10.50
2023-04-24T08:18:55.641Z,10.30
2023-04-24T08:20:55.641Z,10.30
2023-04-24T08:22:55.670Z,10.20
2023-04-24T08:24:55.679Z,10.30
2023-04-24T08:26:58.487Z,10.60
2023-04-24T08:28:55.673Z,10.60
2023-04-24T08:30:55.843Z,10.60
2023-04-24T08:32:55.656Z,10.30
2023-04-24T08:34:55.590Z,10.10
2023-04-24T08:36:55.680Z,9.70
2023-04-24T08:38:58.368Z,9.20
2023-04-24T08:40:55.788Z,9.20
2023-04-24T08:42:55.632Z,8.30
2023-04-24T08:44:57.924Z,8.00
2023-04-24T08:46:55.641Z,7.80
2023-04-24T08:48:55.623Z,7.80
2023-04-24T08:50:55.619Z,8.00
2023-04-24T08:52:55.646Z,7.80
2023-04-24T08:54:55.609Z,8.20
2023-04-24T08:56:55.591Z,8.40
2023-04-24T08:58:55.630Z,8.40
2023-04-24T09:00:55.701Z,8.70
2023-04-24T09:02:55.740Z,9.20
2023-04-24T09:04:55.608Z,9.60
2023-04-24T09:06:55.617Z,9.80
2023-04-24T09:08:55.650Z,9.80
2023-04-24T09:10:55.691Z,9.80
2023-04-24T09:12:55.616Z,10.50
2023-04-24T09:14:58.403Z,10.60
2023-04-24T09:16:55.631Z,10.40
2023-04-24T09:18:55.683Z,10.40
2023-04-24T09:20:55.671Z,10.40
2023-04-24T09:22:55.818Z,10.10
2023-04-24T09:24:55.643Z,9.90
2023-04-24T09:26:55.685Z,9.90
2023-04-24T09:28:58.549Z,9.60
2023-04-24T09:30:55.642Z,9.20
2023-04-24T09:32:55.770Z,9.10
2023-04-24T09:34:55.797Z,9.00
2023-04-24T09:36:55.689Z,9.00
2023-04-24T09:38:55.646Z,9.00
2023-04-24T09:40:55.710Z,9.20
2023-04-24T09:42:55.630Z,9.60
2023-04-24T09:45:04.364Z,10.30
2023-04-24T09:46:55.793Z,10.30
2023-04-24T09:48:55.978Z,11.00
2023-04-24T09:50:55.906Z,11.00
2023-04-24T09:52:55.660Z,11.00
2023-04-24T09:54:55.628Z,11.00
2023-04-24T09:56:55.852Z,11.20
2023-04-24T09:58:55.651Z,11.90
2023-04-24T10:00:55.668Z,11.90
2023-04-24T10:02:55.750Z,12.20
2023-04-24T10:04:55.660Z,12.20
2023-04-24T10:06:56.433Z,12.00
2023-04-24T10:08:55.799Z,11.20
2023-04-24T10:10:55.729Z,10.50
2023-04-24T10:12:55.762Z,10.00
2023-04-24T10:14:55.652Z,10.00
2023-04-24T10:16:55.754Z,9.70
2023-04-24T10:18:55.667Z,9.50
2023-04-24T10:20:59.997Z,9.20
2023-04-24T10:22:55.709Z,9.20
2023-04-24T10:24:55.673Z,9.00
2023-04-24T10:26:55.749Z,9.30
2023-04-24T10:28:55.653Z,9.50
2023-04-24T10:30:58.591Z,9.50
2023-04-24T10:32:55.922Z,9.50
2023-04-24T10:37:10.148Z,9.10
2023-04-24T10:39:10.152Z,9.00
2023-04-24T10:41:10.221Z,9.20
2023-04-24T10:43:10.129Z,9.20
2023-04-24T10:45:10.422Z,9.40
2023-04-24T10:47:10.362Z,9.50
2023-04-24T10:49:10.165Z,9.80
2023-04-24T10:51:10.206Z,9.80
2023-04-24T10:53:10.204Z,10.00
2023-04-24T10:55:10.184Z,10.30
2023-04-24T10:57:10.174Z,10.40
2023-04-24T10:59:10.180Z,11.10
2023-04-24T11:01:10.224Z,11.10
2023-04-24T11:03:10.490Z,11.90
2023-04-24T11:05:11.189Z,11.90
2023-04-24T11:07:10.372Z,11.50
2023-04-24T11:09:10.185Z,11.00
2023-04-24T11:11:10.207Z,11.00
2023-04-24T11:13:11.655Z,11.00
2023-04-24T11:15:16.256Z,10.10
2023-04-24T11:17:10.370Z,10.00
2023-04-24T11:19:10.219Z,9.90
2023-04-24T11:21:10.199Z,9.90
2023-04-24T11:23:11.981Z,10.00
2023-04-24T11:25:10.358Z,10.40
2023-04-24T11:27:10.194Z,10.80
2023-04-24T11:29:10.165Z,10.80
2023-04-24T11:31:10.176Z,11.80
2023-04-24T11:33:10.261Z,12.10
2023-04-24T11:35:13.749Z,12.30
2023-04-24T11:37:10.295Z,12.80
2023-04-24T11:39:10.279Z,12.80
2023-04-24T11:41:10.173Z,12.40
2023-04-24T11:43:10.317Z,11.50
2023-04-24T11:45:10.254Z,11.00
2023-04-24T11:47:10.218Z,10.80
2023-04-24T11:49:10.207Z,10.80
2023-04-24T11:51:10.238Z,10.80
2023-04-24T11:53:10.315Z,10.80
2023-04-24T11:55:10.323Z,10.50
2023-04-24T11:57:10.231Z,10.50
2023-04-24T11:59:10.323Z,10.40
2023-04-24T12:01:10.235Z,10.70
2023-04-24T12:03:10.301Z,11.40
2023-04-24T12:05:10.582Z,11.10
2023-04-24T12:07:10.216Z,11.10
2023-04-24T12:09:17.658Z,10.70
2023-04-24T12:11:15.120Z,10.60
2023-04-24T12:13:10.274Z,10.80
2023-04-24T12:15:10.535Z,11.00
2023-04-24T12:17:10.230Z,11.00
2023-04-24T12:19:10.321Z,11.90
2023-04-24T12:21:10.234Z,12.70
2023-04-24T12:23:10.318Z,12.90
2023-04-24T12:25:10.346Z,12.90
2023-04-24T12:27:10.191Z,12.70
2023-04-24T12:29:10.207Z,12.40
2023-04-24T12:31:10.307Z,11.60
2023-04-24T12:33:10.258Z,11.60
2023-04-24T12:35:10.283Z,11.60
2023-04-24T12:37:10.309Z,10.40
2023-04-24T12:39:10.343Z,9.90
2023-04-24T12:41:10.256Z,9.70
2023-04-24T12:43:10.988Z,9.50
2023-04-24T12:45:10.247Z,9.50
2023-04-24T12:47:10.273Z,9.70
2023-04-24T12:49:10.685Z,10.60
2023-04-24T12:51:10.461Z,11.50
2023-04-24T12:54:10.864Z,11.50
2023-04-24T12:56:10.266Z,11.40
2023-04-24T12:58:10.497Z,11.40
2023-04-24T13:00:10.306Z,11.00
2023-04-24T13:02:10.389Z,10.60
2023-04-24T13:04:10.357Z,10.40
2023-04-24T13:06:10.287Z,9.90
2023-04-24T13:08:10.215Z,9.90
2023-04-24T13:10:10.763Z,9.50
2023-04-24T13:12:15.189Z,9.20
2023-04-24T13:14:10.240Z,9.20
2023-04-24T13:16:13.311Z,8.20
2023-04-24T13:18:10.349Z,8.20
2023-04-24T13:20:10.312Z,8.10
2023-04-24T13:22:10.276Z,8.30
2023-04-24T13:24:10.361Z,8.80
2023-04-24T13:26:10.312Z,8.80
2023-04-24T13:28:10.224Z,9.40
2023-04-24T13:30:10.310Z,9.90
2023-04-24T13:32:10.365Z,10.00
2023-04-24T13:34:10.310Z,9.90
2023-04-24T13:36:10.318Z,9.90
2023-04-24T13:38:10.367Z,10.00
2023-04-24T13:40:13.172Z,9.80
2023-04-24T13:42:11.446Z,9.70
2023-04-24T13:44:14.193Z,9.80
2023-04-24T13:46:10.460Z,9.80
2023-04-24T13:48:10.505Z,9.80
2023-04-24T13:50:10.581Z,9.70
2023-04-24T13:52:10.278Z,9.60
2023-04-24T13:54:10.395Z,9.60
2023-04-24T13:56:10.275Z,9.60
2023-04-24T13:58:10.262Z,9.50
2023-04-24T14:00:10.324Z,10.10
2023-04-24T14:02:10.353Z,10.80
2023-04-24T14:04:10.525Z,10.80
2023-04-24T14:06:10.281Z,10.60
2023-04-24T14:08:10.304Z,10.20
2023-04-24T14:10:13.056Z,10.10
2023-04-24T14:12:10.812Z,9.80
2023-04-24T14:14:10.296Z,9.80
2023-04-24T14:16:12.127Z,9.60
2023-04-24T14:18:10.528Z,9.30
2023-04-24T14:20:12.297Z,9.20
2023-04-24T14:22:10.288Z,9.20
2023-04-24T14:24:10.328Z,9.20
2023-04-24T14:26:10.273Z,8.30
2023-04-24T14:28:10.351Z,8.00
2023-04-24T14:30:10.312Z,7.90
2023-04-24T14:32:10.309Z,7.90
2023-04-24T14:34:10.381Z,7.90
2023-04-24T14:36:10.350Z,7.90
2023-04-24T14:38:10.292Z,8.40
2023-04-24T14:40:21.202Z,8.70
2023-04-24T14:42:10.337Z,8.70
2023-04-24T14:44:10.356Z,8.90
2023-04-24T14:46:13.616Z,9.00
2023-04-24T14:48:10.348Z,9.20
2023-04-24T14:50:10.470Z,9.40
2023-04-24T14:52:10.450Z,9.40
2023-04-24T14:54:12.909Z,9.40
2023-04-24T14:56:10.329Z,9.20
2023-04-24T14:58:12.686Z,9.20
2023-04-24T15:00:10.365Z,9.20
2023-04-24T15:04:10.607Z,9.00
2023-04-24T15:06:10.314Z,8.90
2023-04-24T15:08:10.363Z,8.80
2023-04-24T15:10:12.932Z,8.80
2023-04-24T15:12:11.065Z,8.00
2023-04-24T15:14:12.216Z,7.40
2023-04-24T15:16:10.429Z,7.40
2023-04-24T15:18:10.426Z,7.20
2023-04-24T15:20:14.950Z,7.20
2023-04-24T15:22:11.328Z,7.00
2023-04-24T15:24:10.406Z,7.00
2023-04-24T15:26:10.573Z,7.00
2023-04-24T15:28:12.100Z,7.00
2023-04-24T15:30:10.585Z,7.00
2023-04-24T15:32:10.679Z,7.20
2023-04-24T15:34:10.706Z,7.20
2023-04-24T15:36:10.462Z,7.50
2023-04-24T15:38:10.331Z,7.50
2023-04-24T15:40:10.412Z,7.60
2023-04-24T15:42:10.619Z,7.70
2023-04-24T15:44:10.369Z,7.70
2023-04-24T15:46:10.812Z,7.70
2023-04-24T15:48:10.425Z,7.70
2023-04-24T15:50:11.570Z,7.70
2023-04-24T15:52:12.273Z,7.80
2023-04-24T15:54:10.440Z,7.80
2023-04-24T15:56:10.387Z,7.80
2023-04-24T15:58:10.337Z,7.80
2023-04-24T16:00:10.441Z,8.00
2023-04-24T16:02:10.725Z,8.10
2023-04-24T16:04:10.929Z,8.40
2023-04-24T16:06:10.534Z,8.40
2023-04-24T16:08:10.478Z,8.80
2023-04-24T16:10:13.257Z,9.00
2023-04-24T16:12:10.593Z,8.90
2023-04-24T16:14:10.784Z,8.90
2023-04-24T16:16:10.424Z,8.90
2023-04-24T16:18:10.518Z,8.80
2023-04-24T16:20:15.994Z,8.70
2023-04-24T16:22:14.160Z,8.60
2023-04-24T16:24:10.524Z,8.60
2023-04-24T16:26:10.500Z,8.70
2023-04-24T16:28:10.522Z,8.60
2023-04-24T16:30:10.609Z,8.60
2023-04-24T16:34:37.223Z,8.60
2023-04-24T16:36:37.509Z,8.60
2023-04-24T16:38:37.053Z,8.60
2023-04-24T16:40:37.089Z,8.60
2023-04-24T16:42:37.048Z,8.60
2023-04-24T16:44:37.001Z,8.60
2023-04-24T16:46:37.054Z,8.50
2023-04-24T16:48:37.167Z,8.50
2023-04-24T16:50:37.536Z,8.50
2023-04-24T16:52:39.973Z,8.50
2023-04-24T16:54:36.995Z,8.50
2023-04-24T16:56:38.444Z,8.50
2023-04-24T16:58:37.075Z,8.50
2023-04-24T17:00:37.157Z,8.70
2023-04-24T17:02:37.135Z,8.90
2023-04-24T17:04:37.260Z,9.20
2023-04-24T17:06:37.067Z,9.20
2023-04-24T17:08:36.994Z,9.40
2023-04-24T17:10:37.029Z,9.50
2023-04-24T17:12:37.428Z,9.40
2023-04-24T17:14:37.085Z,9.30
2023-04-24T17:16:37.333Z,9.30
2023-04-24T17:18:37.067Z,9.30
2023-04-24T17:20:37.167Z,9.10
2023-04-24T17:22:37.239Z,9.00
2023-04-24T17:24:37.086Z,9.00
2023-04-24T17:26:37.061Z,8.80
2023-04-24T17:28:37.267Z,8.80
2023-04-24T17:30:37.119Z,8.70
2023-04-24T17:32:37.103Z,8.50
2023-04-24T17:34:37.033Z,8.50
2023-04-24T17:36:37.137Z,8.50
2023-04-24T17:38:37.147Z,8.40
2023-04-24T17:40:37.325Z,8.40
2023-04-24T17:42:38.189Z,8.30
2023-04-24T17:44:37.065Z,8.30
2023-04-24T17:46:37.122Z,8.30
2023-04-24T17:48:37.109Z,8.20
2023-04-24T17:50:37.125Z,8.20
2023-04-24T17:52:41.931Z,8.00
2023-04-24T17:54:37.123Z,8.00
2023-04-24T17:56:37.145Z,8.00
2023-04-24T17:58:37.120Z,8.00
2023-04-24T18:00:37.142Z,7.90
2023-04-24T18:02:41.207Z,7.90
2023-04-24T18:04:37.263Z,7.80
2023-04-24T18:06:37.220Z,7.80
2023-04-24T18:08:37.151Z,7.80
2023-04-24T18:10:37.093Z,7.50
2023-04-24T18:12:37.126Z,7.50
2023-04-24T18:14:37.125Z,7.50
2023-04-24T18:16:37.179Z,7.40
2023-04-24T18:18:38.589Z,7.30
2023-04-24T18:21:37.334Z,7.30
2023-04-24T18:23:37.169Z,7.20
2023-04-24T18:25:37.080Z,7.20
2023-04-24T18:27:37.254Z,7.20
2023-04-24T18:29:37.192Z,7.10
2023-04-24T18:31:37.327Z,7.00
2023-04-24T18:33:38.125Z,7.00
2023-04-24T18:35:37.152Z,7.00
2023-04-24T18:37:37.138Z,6.90
2023-04-24T18:39:37.062Z,6.90
2023-04-24T18:41:37.306Z,6.80
2023-04-24T18:43:37.087Z,6.70
2023-04-24T18:45:37.071Z,6.70
2023-04-24T18:47:37.090Z,6.70
2023-04-24T18:49:37.257Z,6.80
2023-04-24T18:51:50.336Z,6.80
2023-04-24T18:53:37.113Z,6.80
2023-04-24T18:55:37.141Z,6.80
2023-04-24T18:57:37.371Z,6.90
2023-04-24T18:59:37.164Z,6.90
2023-04-24T19:01:37.275Z,6.90
2023-04-24T19:03:37.220Z,6.90
2023-04-24T19:05:40.243Z,6.80
2023-04-24T19:07:37.080Z,6.80
2023-04-24T19:09:37.140Z,6.70
2023-04-24T19:11:37.126Z,6.60
2023-04-24T19:13:37.510Z,6.60
2023-04-24T19:15:37.092Z,6.60
2023-04-24T19:17:37.300Z,6.60
2023-04-24T19:19:37.189Z,6.60
2023-04-24T19:21:37.144Z,6.60
2023-04-24T19:23:37.143Z,6.60
2023-04-24T19:25:37.075Z,6.60
2023-04-24T19:27:38.598Z,6.70
2023-04-24T19:29:37.145Z,6.70
2023-04-24T19:31:37.279Z,6.70
2023-04-24T19:33:37.233Z,6.80
2023-04-24T19:35:37.166Z,6.80
2023-04-24T19:37:37.127Z,6.90
2023-04-24T19:39:37.209Z,6.80
2023-04-24T19:41:37.324Z,6.80
2023-04-24T19:43:37.074Z,6.90
2023-04-24T19:45:37.221Z,6.90
2023-04-24T19:47:37.189Z,7.00
2023-04-24T19:49:37.113Z,7.00
2023-04-24T19:51:37.148Z,7.00
2023-04-24T19:53:37.209Z,7.00
2023-04-24T19:55:37.072Z,7.00
2023-04-24T19:57:37.127Z,7.00
2023-04-24T19:59:37.166Z,7.00
2023-04-24T20:01:37.160Z,7.00
2023-04-24T20:03:37.344Z,7.10
2023-04-24T20:05:37.291Z,7.20
2023-04-24T20:07:40.154Z,7.20
2023-04-24T20:09:37.167Z,7.20
2023-04-24T20:11:37.154Z,7.40
2023-04-24T20:13:38.723Z,7.50
2023-04-24T20:15:37.295Z,7.50
2023-04-24T20:17:37.198Z,7.50
2023-04-24T20:19:37.481Z,7.50
2023-04-24T20:21:37.447Z,7.50
2023-04-24T20:23:37.214Z,7.50
2023-04-24T20:25:37.572Z,7.60
2023-04-24T20:27:37.132Z,7.60
2023-04-24T20:29:37.198Z,7.50
2023-04-24T20:31:37.294Z,7.50
2023-04-24T20:33:39.996Z,7.60
2023-04-24T20:35:37.204Z,7.60
2023-04-24T20:37:37.137Z,7.60
2023-04-24T20:39:37.220Z,7.50
2023-04-24T20:41:37.179Z,7.50
2023-04-24T20:43:37.364Z,7.20
2023-04-24T20:45:37.170Z,7.00
2023-04-24T20:47:37.210Z,7.00
2023-04-24T20:49:37.320Z,6.90
2023-04-24T20:51:37.264Z,6.80
2023-04-24T20:53:37.288Z,6.70
2023-04-24T20:55:37.190Z,6.50
2023-04-24T20:57:37.206Z,6.50
2023-04-24T20:59:37.244Z,6.40
2023-04-24T21:01:37.161Z,6.40
2023-04-24T21:03:38.503Z,6.40
2023-04-24T21:05:37.317Z,6.40
2023-04-24T21:07:37.190Z,6.40
2023-04-24T21:09:40.209Z,6.40
2023-04-24T21:11:37.173Z,6.40
2023-04-24T21:13:37.137Z,6.40
2023-04-24T21:15:37.149Z,6.40
2023-04-24T21:17:37.210Z,6.40
2023-04-24T21:19:37.244Z,6.30
2023-04-24T21:21:37.278Z,6.30
2023-04-24T21:23:37.226Z,6.20
2023-04-24T21:25:37.223Z,6.20
2023-04-24T21:27:37.237Z,6.20
2023-04-24T21:29:38.108Z,6.10
2023-04-24T21:31:37.215Z,6.10
2023-04-24T21:33:37.257Z,6.10
2023-04-24T21:35:37.161Z,6.00
2023-04-24T21:37:37.195Z,5.90
2023-04-24T21:39:37.244Z,5.80
2023-04-24T21:41:37.237Z,5.80
2023-04-24T21:43:44.517Z,5.80
2023-04-24T21:45:37.205Z,5.60
2023-04-24T21:47:37.187Z,5.60
2023-04-24T21:49:39.789Z,5.50
2023-04-24T21:51:37.186Z,5.40
2023-04-24T21:53:42.147Z,5.40
2023-04-24T21:55:37.204Z,5.40
2023-04-24T21:57:37.213Z,5.40
2023-04-24T21:59:37.192Z,5.30
2023-04-24T22:01:37.336Z,5.30
2023-04-24T22:04:37.357Z,5.30
2023-04-24T22:06:37.245Z,5.30
2023-04-24T22:08:37.184Z,5.30
2023-04-24T22:10:37.198Z,5.20
2023-04-24T22:11:40.103Z,5.20
2023-04-24T22:14:37.326Z,5.20
2023-04-24T22:16:37.337Z,5.20
2023-04-24T22:18:46.969Z,5.20
2023-04-24T22:20:38.268Z,5.20
2023-04-24T22:22:37.340Z,5.20
2023-04-24T22:24:37.176Z,5.10
2023-04-24T22:26:37.280Z,5.10
2023-04-24T22:28:37.172Z,4.90
2023-04-24T22:30:37.293Z,4.90
2023-04-24T22:32:37.310Z,4.90
2023-04-24T22:34:37.235Z,4.90
2023-04-24T22:36:37.512Z,4.90
2023-04-24T22:38:37.232Z,4.90
2023-04-24T22:40:40.759Z,4.90
2023-04-24T22:42:40.156Z,4.90
2023-04-24T22:44:37.416Z,4.90
2023-04-24T22:48:45.765Z,5.10
2023-04-24T22:50:45.677Z,5.20
2023-04-24T22:52:45.610Z,5.20
2023-04-24T22:54:45.828Z,5.20
2023-04-24T22:56:45.613Z,5.20
2023-04-24T22:58:45.671Z,5.20
2023-04-24T23:00:55.017Z,5.20
2023-04-24T23:02:45.762Z,5.20
2023-04-24T23:04:45.848Z,5.30
2023-04-24T23:06:45.627Z,5.40
2023-04-24T23:08:45.747Z,5.30
2023-04-24T23:10:45.665Z,5.30
2023-04-24T23:12:49.523Z,5.30
2023-04-24T23:14:48.203Z,5.40
2023-04-24T23:16:45.764Z,5.40
2023-04-24T23:18:45.775Z,5.30
2023-04-24T23:20:47.468Z,5.40
2023-04-24T23:22:45.732Z,5.40
2023-04-24T23:24:51.228Z,5.40
2023-04-24T23:26:45.693Z,5.60
2023-04-24T23:28:45.811Z,5.70
2023-04-24T23:30:47.004Z,5.70
2023-04-24T23:32:45.885Z,5.80
2023-04-24T23:34:45.707Z,6.00
2023-04-24T23:36:45.682Z,6.00
2023-04-24T23:38:50.209Z,6.10
2023-04-24T23:40:46.023Z,6.10
2023-04-24T23:42:51.508Z,6.20
2023-04-24T23:44:50.543Z,6.30
2023-04-24T23:46:45.668Z,6.30
2023-04-24T23:48:45.647Z,6.40
2023-04-24T23:50:45.691Z,6.40
2023-04-24T23:52:45.810Z,6.40
2023-04-24T23:54:45.735Z,6.40
2023-04-24T23:56:45.766Z,6.40
2023-04-24T23:58:46.004Z,6.40
